Time;durP1;ratioP1;P1;durP2;ratioP2;P2;SDS_P1;SDS_P2;PMS_P1;PMS_P2;Temp;Humidity;BMP_temperature;BMP_pressure;BME280_temperature;BME280_humidity;BME280_pressure;Samples;Min_cycle;Max_cycle;Signal;HPM_P1;HPM_P2
2022/09/18 00:00:58;;;;;;;10.93;6.47;;;;;;;13.52;100.00;98310.44;1735770;82;21080;-69
2022/09/18 00:03:24;;;;;;;11.25;6.70;;;;;;;13.56;100.00;98309.86;1735164;81;21052;-67
2022/09/18 00:05:51;;;;;;;7.08;6.47;;;;;;;13.54;100.00;98307.45;1721679;82;21214;-68
2022/09/18 00:08:18;;;;;;;6.05;5.47;;;;;;;13.52;100.00;98302.34;1735508;81;20906;-67
2022/09/18 00:10:45;;;;;;;5.80;5.30;;;;;;;13.52;100.00;98306.39;1735988;81;21128;-68
2022/09/18 00:13:13;;;;;;;7.22;6.45;;;;;;;13.49;100.00;98291.34;1760424;80;20995;-72
2022/09/18 00:15:42;;;;;;;7.40;5.62;;;;;;;13.49;100.00;98281.34;1760559;80;20938;-71
2022/09/18 00:18:08;;;;;;;7.20;6.53;;;;;;;13.44;100.00;98277.95;1775149;80;21328;-71
2022/09/18 00:20:35;;;;;;;6.90;6.33;;;;;;;13.41;100.00;98282.62;1785565;80;20970;-70
2022/09/18 00:23:02;;;;;;;7.92;7.22;;;;;;;13.43;100.00;98289.85;1785652;80;20966;-71
2022/09/18 00:25:31;;;;;;;6.45;5.90;;;;;;;13.43;100.00;98289.30;1785534;80;21061;-70
2022/09/18 00:27:57;;;;;;;8.28;7.25;;;;;;;13.45;100.00;98293.86;1783734;80;21047;-70
2022/09/18 00:30:24;;;;;;;8.73;7.00;;;;;;;13.46;100.00;98298.72;1785643;80;21310;-68
2022/09/18 00:32:51;;;;;;;8.13;7.33;;;;;;;13.44;100.00;98303.06;1786071;80;20939;-70
2022/09/18 00:35:17;;;;;;;8.18;7.47;;;;;;;13.45;100.00;98302.52;1788289;80;21011;-70
2022/09/18 00:37:44;;;;;;;7.87;7.17;;;;;;;13.44;100.00;98289.56;1775644;80;21080;-68
2022/09/18 00:40:12;;;;;;;11.93;7.37;;;;;;;13.43;100.00;98287.95;1762899;80;21018;-71
2022/09/18 00:42:38;;;;;;;8.88;7.20;;;;;;;13.42;100.00;98284.23;1785612;80;21789;-70
2022/09/18 00:45:06;;;;;;;6.35;5.80;;;;;;;13.40;100.00;98279.12;1763068;80;20979;-69
2022/09/18 00:47:46;;;;;;;8.15;7.45;;;;;;;13.43;100.00;98286.60;1774361;80;21058;-68
2022/09/18 00:50:20;;;;;;;7.17;5.92;;;;;;;13.44;100.00;98272.55;1783460;80;20908;-72
2022/09/18 00:52:53;;;;;;;7.05;6.47;;;;;;;13.48;100.00;98271.64;1785002;80;20964;-72
2022/09/18 00:55:23;;;;;;;8.75;7.70;;;;;;;13.49;100.00;98270.55;1774448;80;21221;-72
2022/09/18 00:57:53;;;;;;;7.67;7.05;;;;;;;13.49;100.00;98254.89;1769273;81;20994;-69
2022/09/18 01:00:20;;;;;;;7.53;6.95;;;;;;;13.51;100.00;98250.80;1785396;80;21030;-69
2022/09/18 01:02:49;;;;;;;9.13;8.33;;;;;;;13.51;100.00;98235.94;1785755;80;21040;-69
2022/09/18 01:05:24;;;;;;;8.25;7.65;;;;;;;13.46;100.00;98230.66;1784450;80;21563;-68
2022/09/18 01:08:06;;;;;;;8.33;7.62;;;;;;;13.44;100.00;98225.29;1780192;80;21130;-69
2022/09/18 01:10:51;;;;;;;8.18;7.00;;;;;;;13.41;100.00;98223.20;1764077;80;20965;-69
2022/09/18 01:13:42;;;;;;;9.28;7.97;;;;;;;13.35;100.00;98219.02;1746711;80;20941;-71
2022/09/18 01:16:27;;;;;;;9.45;8.53;;;;;;;13.34;100.00;98218.76;1769077;80;21463;-69
2022/09/18 01:19:02;;;;;;;9.58;8.55;;;;;;;13.38;100.00;98219.20;1770304;80;21234;-76
2022/09/18 01:21:36;;;;;;;13.40;8.40;;;;;;;13.40;100.00;98224.30;1773193;78;21456;-77
2022/09/18 01:24:22;;;;;;;;;;;;;;;13.44;100.00;98217.19;1790901;80;21538;-78
2022/09/18 01:27:05;;;;;;;7.95;7.25;;;;;;;13.49;100.00;98217.08;1733513;81;20146;-77
2022/09/18 01:29:51;;;;;;;7.60;6.90;;;;;;;13.50;100.00;98200.58;1746296;80;21511;-76
2022/09/18 01:32:44;;;;;;;6.80;6.22;;;;;;;13.50;100.00;98195.72;1778738;80;21006;-77
2022/09/18 01:35:21;;;;;;;9.85;9.05;;;;;;;13.50;100.00;98192.47;1786436;80;21189;-77
2022/09/18 01:37:55;;;;;;;11.12;7.80;;;;;;;13.50;100.00;98191.67;1784954;80;21007;-79
2022/09/18 01:40:30;;;;;;;8.83;7.95;;;;;;;13.49;100.00;98187.37;1784475;80;20915;-73
2022/09/18 01:43:00;;;;;;;8.13;7.33;;;;;;;13.48;100.00;98182.52;1777172;80;20922;-77
2022/09/18 01:45:32;;;;;;;10.35;7.53;;;;;;;13.48;100.00;98170.91;1783793;80;21042;-78
2022/09/18 01:48:03;;;;;;;8.63;7.70;;;;;;;13.47;100.00;98166.63;1761463;80;22115;-77
2022/09/18 01:50:35;;;;;;;9.63;8.45;;;;;;;13.45;100.00;98162.08;1781522;80;21496;-75
2022/09/18 01:53:23;;;;;;;10.58;8.10;;;;;;;13.40;100.00;98170.30;1754615;81;21011;-75
2022/09/18 01:55:58;;;;;;;8.68;7.95;;;;;;;13.40;100.00;98159.50;1764571;80;21000;-76
2022/09/18 01:58:25;;;;;;;8.78;8.08;;;;;;;13.37;100.00;98154.72;1768277;80;21077;-73
2022/09/18 02:00:56;;;;;;;9.23;8.43;;;;;;;13.33;100.00;98140.23;1780726;80;21092;-72
2022/09/18 02:03:30;;;;;;;8.28;7.58;;;;;;;13.30;100.00;98135.42;1718877;83;21061;-74
2022/09/18 02:06:03;;;;;;;7.30;6.70;;;;;;;13.29;100.00;98129.77;1723672;82;21088;-73
2022/09/18 02:08:42;;;;;;;8.05;7.25;;;;;;;13.30;100.00;98125.97;1737955;81;21087;-72
2022/09/18 02:11:14;;;;;;;9.75;7.65;;;;;;;13.29;100.00;98125.17;1748613;82;21102;-74
2022/09/18 02:14:08;;;;;;;8.83;7.40;;;;;;;13.29;100.00;98125.72;1741698;82;21169;-73
2022/09/18 02:16:56;;;;;;;14.58;8.93;;;;;;;13.30;100.00;98120.03;1730583;82;20985;-73
2022/09/18 02:19:31;;;;;;;7.72;6.97;;;;;;;13.31;100.00;98114.08;1728846;82;21053;-74
2022/09/18 02:21:59;;;;;;;11.20;9.58;;;;;;;13.31;100.00;98091.12;1741968;81;21038;-73
2022/09/18 02:24:29;;;;;;;9.58;8.68;;;;;;;13.30;100.00;98088.17;1717517;82;21027;-73
2022/09/18 02:26:56;;;;;;;8.93;8.10;;;;;;;13.27;100.00;98092.30;1736236;82;21069;-75
2022/09/18 02:29:22;;;;;;;8.80;8.10;;;;;;;13.26;100.00;98094.75;1737445;82;21012;-74
2022/09/18 02:31:50;;;;;;;8.10;7.30;;;;;;;13.28;100.00;98112.80;1746479;81;20965;-73
2022/09/18 02:34:16;;;;;;;9.30;8.45;;;;;;;13.25;100.00;98107.99;1746274;81;21050;-73
2022/09/18 02:37:16;;;;;;;8.53;6.12;;;;;;;13.21;100.00;98106.21;1730145;82;21030;-73
2022/09/18 02:40:28;;;;;;;8.60;7.72;;;;;;;13.16;100.00;98104.43;1733699;81;21167;-73
2022/09/18 02:43:28;;;;;;;9.60;8.53;;;;;;;13.16;100.00;98104.98;1735739;82;21030;-74
2022/09/18 02:46:10;;;;;;;8.43;7.62;;;;;;;13.16;100.00;98096.33;1721316;83;21062;-72
2022/09/18 02:49:05;;;;;;;9.35;7.25;;;;;;;13.17;100.00;98089.03;1720331;83;21035;-73
2022/09/18 02:52:04;;;;;;;9.58;8.68;;;;;;;13.20;100.00;98079.77;1721630;81;21061;-73
2022/09/18 02:54:59;;;;;;;9.05;8.25;;;;;;;13.20;100.00;98074.91;1720680;82;21056;-73
2022/09/18 02:57:30;;;;;;;9.63;7.67;;;;;;;13.23;100.00;98064.87;1701285;83;20995;-73
2022/09/18 02:59:58;;;;;;;8.23;7.45;;;;;;;13.24;100.00;98055.65;1721952;83;21027;-72
2022/09/18 03:02:25;;;;;;;8.73;7.80;;;;;;;13.28;100.00;98045.30;1722117;83;21486;-73
2022/09/18 03:04:52;;;;;;;9.90;7.53;;;;;;;13.27;100.00;98038.30;1722037;83;21112;-73
2022/09/18 03:07:24;;;;;;;7.12;6.58;;;;;;;13.23;100.00;98025.73;1721247;83;21331;-73
2022/09/18 03:09:52;;;;;;;6.05;5.55;;;;;;;13.16;100.00;98032.90;1721959;83;21504;-76
2022/09/18 03:12:20;;;;;;;8.13;7.45;;;;;;;13.10;100.00;98024.09;1721864;83;21062;-73
2022/09/18 03:14:48;;;;;;;8.58;7.75;;;;;;;13.09;100.00;98017.67;1723053;82;21046;-74
2022/09/18 03:17:14;;;;;;;8.70;7.78;;;;;;;13.06;100.00;98013.67;1729130;81;25897;-73
2022/09/18 03:19:43;;;;;;;6.92;6.33;;;;;;;13.08;100.00;98001.23;1684722;84;21108;-73
2022/09/18 03:22:11;;;;;;;9.78;6.85;;;;;;;13.09;100.00;97997.42;1678411;84;20998;-74
2022/09/18 03:24:37;;;;;;;13.60;8.10;;;;;;;13.09;100.00;97993.38;1670298;84;21057;-74
2022/09/18 03:27:05;;;;;;;7.62;6.92;;;;;;;13.09;100.00;97992.80;1712377;83;21097;-73
2022/09/18 03:29:32;;;;;;;8.10;6.58;;;;;;;13.04;100.00;97988.87;1690078;83;20998;-74
2022/09/18 03:32:00;;;;;;;7.67;6.97;;;;;;;13.02;100.00;97987.60;1712009;83;21220;-73
2022/09/18 03:34:27;;;;;;;6.70;5.95;;;;;;;12.99;100.00;97978.23;1688681;83;20986;-73
2022/09/18 03:36:54;;;;;;;6.50;5.95;;;;;;;13.00;100.00;97981.70;1727622;83;21014;-73
2022/09/18 03:39:21;;;;;;;6.60;6.03;;;;;;;13.00;100.00;97978.45;1722843;83;21057;-73
2022/09/18 03:41:49;;;;;;;8.98;7.10;;;;;;;12.97;100.00;97976.93;1729633;83;21175;-74
2022/09/18 03:44:16;;;;;;;9.85;8.95;;;;;;;12.96;100.00;97976.13;1704530;83;21141;-74
2022/09/18 03:46:44;;;;;;;6.78;6.17;;;;;;;12.97;100.00;97972.88;1729697;83;21036;-74
2022/09/18 03:49:10;;;;;;;6.95;6.25;;;;;;;12.98;100.00;97963.69;1728374;82;21531;-74
2022/09/18 03:51:39;;;;;;;5.08;4.67;;;;;;;12.97;100.00;97969.63;1725912;81;21511;-74
2022/09/18 03:54:06;;;;;;;7.20;6.60;;;;;;;12.96;100.00;97960.48;1712036;83;21034;-75
2022/09/18 03:56:37;;;;;;;5.42;5.03;;;;;;;12.97;100.00;97953.99;1714945;83;21774;-74
2022/09/18 03:59:10;;;;;;;10.53;5.55;;;;;;;12.96;100.00;97942.95;1728571;82;21550;-74
2022/09/18 04:01:41;;;;;;;5.00;4.30;;;;;;;12.92;100.00;97945.47;1705546;83;20979;-74
2022/09/18 04:04:26;;;;;;;5.08;4.70;;;;;;;12.85;100.00;97941.08;1729799;83;21053;-74
2022/09/18 04:06:53;;;;;;;5.37;4.97;;;;;;;12.80;100.00;97941.20;1724656;83;21062;-74
2022/09/18 04:09:24;;;;;;;4.03;3.72;;;;;;;12.84;100.00;97940.83;1710049;82;21041;-75
2022/09/18 04:11:54;;;;;;;5.08;3.90;;;;;;;12.87;100.00;97938.05;1712137;83;21031;-74
2022/09/18 04:14:21;;;;;;;3.87;3.58;;;;;;;12.84;100.00;97940.03;1712257;83;21002;-73
2022/09/18 04:16:48;;;;;;;5.15;4.72;;;;;;;12.81;100.00;97936.57;1712474;83;21045;-74
2022/09/18 04:19:14;;;;;;;5.28;4.80;;;;;;;12.78;100.00;97930.45;1722156;83;21042;-73
2022/09/18 04:21:41;;;;;;;5.33;4.85;;;;;;;12.77;100.00;97926.16;1728618;81;21090;-73
2022/09/18 04:24:07;;;;;;;4.58;4.22;;;;;;;12.74;100.00;97918.14;1712050;83;21080;-74
2022/09/18 04:26:36;;;;;;;4.25;3.92;;;;;;;12.72;100.00;97916.29;1686095;83;21078;-73
2022/09/18 04:29:03;;;;;;;4.25;3.95;;;;;;;12.72;100.00;97903.35;1720474;83;21604;-72
2022/09/18 04:31:30;;;;;;;4.28;3.98;;;;;;;12.72;100.00;97889.31;1719305;83;21037;-73
2022/09/18 04:34:00;;;;;;;6.28;4.05;;;;;;;12.73;100.00;97888.77;1705143;84;21140;-73
2022/09/18 04:36:27;;;;;;;5.47;4.62;;;;;;;12.75;100.00;97884.67;1693371;81;20979;-73
2022/09/18 04:38:53;;;;;;;4.67;4.30;;;;;;;12.75;100.00;97872.53;1704965;83;21026;-73
2022/09/18 04:41:22;;;;;;;3.72;3.42;;;;;;;12.75;100.00;97872.53;1712517;83;21044;-73
2022/09/18 04:43:48;;;;;;;5.10;3.40;;;;;;;12.77;100.00;97863.56;1712695;83;21111;-72
2022/09/18 04:46:15;;;;;;;3.55;3.25;;;;;;;12.76;100.00;97860.62;1727828;83;21129;-73
2022/09/18 04:48:46;;;;;;;4.22;3.92;;;;;;;12.75;100.00;97849.61;1701994;83;21036;-74
2022/09/18 04:51:15;;;;;;;4.08;3.77;;;;;;;12.75;100.00;97852.30;1725877;83;21634;-74
2022/09/18 04:53:43;;;;;;;4.40;4.00;;;;;;;12.74;100.00;97840.47;1741890;81;21107;-73
2022/09/18 04:56:09;;;;;;;5.90;5.40;;;;;;;12.71;100.00;97851.30;1702655;83;21589;-73
2022/09/18 04:58:36;;;;;;;4.12;3.83;;;;;;;12.71;100.00;97845.14;1712402;83;21106;-74
2022/09/18 05:01:04;;;;;;;4.55;3.58;;;;;;;12.69;100.00;97840.05;1729574;82;21035;-73
2022/09/18 05:03:31;;;;;;;4.17;3.87;;;;;;;12.71;100.00;97835.13;1682148;85;21049;-72
2022/09/18 05:05:58;;;;;;;4.55;4.25;;;;;;;12.68;100.00;97831.16;1732512;82;21061;-72
2022/09/18 05:08:26;;;;;;;6.62;4.70;;;;;;;12.66;100.00;97829.89;1712379;83;21153;-72
2022/09/18 05:10:53;;;;;;;5.15;4.75;;;;;;;12.66;100.00;97829.30;1729134;83;21105;-73
2022/09/18 05:13:20;;;;;;;5.45;4.95;;;;;;;12.68;100.00;97818.22;1711205;83;20972;-73
2022/09/18 05:15:54;;;;;;;5.65;5.20;;;;;;;12.67;100.00;97813.37;1691576;84;21069;-74
2022/09/18 05:18:21;;;;;;;6.75;6.15;;;;;;;12.66;100.00;97823.91;1692694;84;21047;-71
2022/09/18 05:20:48;;;;;;;6.37;5.78;;;;;;;12.63;100.00;97823.74;1704307;82;21105;-73
2022/09/18 05:23:15;;;;;;;5.72;5.28;;;;;;;12.62;100.00;97815.40;1704477;84;21112;-72
2022/09/18 05:25:42;;;;;;;6.33;5.47;;;;;;;12.64;100.00;97812.66;1704392;84;21017;-75
2022/09/18 05:28:12;;;;;;;6.95;6.35;;;;;;;12.66;100.00;97807.73;1704128;82;21553;-72
2022/09/18 05:30:39;;;;;;;6.08;5.53;;;;;;;12.72;100.00;97803.01;1723655;82;21130;-74
2022/09/18 05:33:06;;;;;;;6.50;5.92;;;;;;;12.73;100.00;97789.77;1704597;84;21069;-75
2022/09/18 05:35:36;;;;;;;7.03;5.95;;;;;;;12.72;100.00;97786.83;1692219;84;21777;-73
2022/09/18 05:38:03;;;;;;;8.65;7.85;;;;;;;12.73;100.00;97776.28;1702505;82;21006;-70
2022/09/18 05:40:33;;;;;;;8.38;7.67;;;;;;;12.77;100.00;97786.69;1694839;84;21108;-73
2022/09/18 05:43:02;;;;;;;11.33;9.65;;;;;;;12.78;100.00;97784.23;1694704;84;21124;-74
2022/09/18 05:45:30;;;;;;;11.28;9.05;;;;;;;12.76;100.00;97779.70;1696197;83;21132;-73
2022/09/18 05:48:02;;;;;;;9.25;8.25;;;;;;;12.77;100.00;97782.64;1723736;83;21135;-73
2022/09/18 05:50:30;;;;;;;9.75;8.75;;;;;;;12.79;100.00;97772.91;1681092;84;21024;-71
2022/09/18 05:53:13;;;;;;;15.32;10.35;;;;;;;12.79;100.00;97774.25;1723658;83;21084;-74
2022/09/18 05:55:47;;;;;;;7.65;6.28;;;;;;;12.79;100.00;97765.61;1721747;83;21065;-73
2022/09/18 05:58:16;;;;;;;6.12;5.62;;;;;;;12.78;100.00;97756.47;1723697;82;21071;-75
2022/09/18 06:00:44;;;;;;;6.42;5.92;;;;;;;12.79;100.00;97745.93;1727397;83;21183;-71
2022/09/18 06:03:13;;;;;;;5.62;5.20;;;;;;;12.81;100.00;97743.15;1727723;83;20909;-72
2022/09/18 06:05:41;;;;;;;9.83;6.92;;;;;;;12.83;100.00;97740.95;1726211;82;21018;-74
2022/09/18 06:08:11;;;;;;;9.43;8.53;;;;;;;12.86;100.00;97742.21;1723707;83;21091;-72
2022/09/18 06:10:39;;;;;;;10.63;9.55;;;;;;;12.85;100.00;97741.99;1704194;83;21021;-75
2022/09/18 06:13:14;;;;;;;10.15;7.10;;;;;;;12.86;100.00;97728.72;1703537;83;21138;-74
2022/09/18 06:15:44;;;;;;;6.12;5.58;;;;;;;12.84;100.00;97729.61;1723322;83;20993;-73
2022/09/18 06:18:16;;;;;;;6.85;6.08;;;;;;;12.91;100.00;97728.03;1702182;82;21049;-74
2022/09/18 06:20:42;;;;;;;5.80;5.30;;;;;;;12.93;100.00;97727.17;1701849;83;20982;-74
2022/09/18 06:23:09;;;;;;;6.10;5.50;;;;;;;12.96;100.00;97717.65;1710957;83;21073;-73
2022/09/18 06:25:41;;;;;;;6.85;6.25;;;;;;;12.92;100.00;97709.94;1714102;81;21262;-73
2022/09/18 06:28:08;;;;;;;8.23;7.42;;;;;;;12.86;100.00;97707.94;1723105;83;21023;-74
2022/09/18 06:30:35;;;;;;;7.05;6.45;;;;;;;12.89;100.00;97714.63;1723365;83;21056;-72
2022/09/18 06:33:07;;;;;;;8.60;7.15;;;;;;;12.90;100.00;97704.85;1723729;83;21032;-74
2022/09/18 06:35:34;;;;;;;9.28;7.35;;;;;;;12.90;100.00;97703.50;1723350;83;21593;-73
2022/09/18 06:38:04;;;;;;;8.33;7.53;;;;;;;12.90;100.00;97693.30;1722272;82;22197;-73
2022/09/18 06:40:38;;;;;;;8.93;7.78;;;;;;;12.95;100.00;97690.45;1715234;81;21086;-72
2022/09/18 06:43:24;;;;;;;7.22;6.53;;;;;;;12.97;100.00;97691.71;1693747;83;21649;-74
2022/09/18 06:46:10;;;;;;;8.00;7.20;;;;;;;12.95;100.00;97691.80;1688049;83;21518;-73
2022/09/18 06:48:38;;;;;;;12.30;8.28;;;;;;;12.95;100.00;97693.15;1711433;82;21554;-72
2022/09/18 06:51:08;;;;;;;7.33;6.72;;;;;;;12.89;100.00;97684.40;1719476;83;21277;-74
2022/09/18 06:53:44;;;;;;;7.22;6.60;;;;;;;12.85;100.00;97674.00;1720031;83;21308;-75
2022/09/18 06:56:11;;;;;;;8.55;7.37;;;;;;;12.87;100.00;97666.92;1679034;82;21105;-74
2022/09/18 06:58:39;;;;;;;7.58;6.28;;;;;;;12.91;100.00;97669.23;1715246;81;21631;-73
2022/09/18 07:01:06;;;;;;;7.92;7.20;;;;;;;12.95;100.00;97672.33;1723509;83;21133;-74
2022/09/18 07:03:35;;;;;;;7.78;7.08;;;;;;;12.95;100.00;97666.94;1722697;83;21160;-72
2022/09/18 07:06:07;;;;;;;8.23;7.42;;;;;;;12.96;100.00;97657.73;1723461;83;21550;-74
2022/09/18 07:08:37;;;;;;;;;;;;;;;12.96;100.00;97671.78;1725160;83;21033;-73
2022/09/18 07:11:06;;;;;;;7.45;6.75;;;;;;;13.00;100.00;97676.78;1722301;81;20189;-74
2022/09/18 07:13:33;;;;;;;7.87;7.17;;;;;;;13.02;100.00;97667.83;1722149;83;21612;-73
2022/09/18 07:16:00;;;;;;;7.75;6.97;;;;;;;13.03;100.00;97668.87;1722781;81;21248;-73
2022/09/18 07:18:27;;;;;;;7.05;6.45;;;;;;;13.05;100.00;97679.33;1718984;82;21017;-73
2022/09/18 07:20:54;;;;;;;7.83;7.03;;;;;;;13.06;100.00;97680.93;1723268;83;21070;-75
2022/09/18 07:23:23;;;;;;;7.75;6.20;;;;;;;13.06;100.00;97681.73;1721041;82;21325;-75
2022/09/18 07:25:51;;;;;;;6.72;6.12;;;;;;;13.10;100.00;97684.59;1673386;84;21557;-73
2022/09/18 07:28:18;;;;;;;7.33;6.62;;;;;;;13.14;100.00;97674.00;1687886;83;21864;-74
2022/09/18 07:30:46;;;;;;;6.72;6.12;;;;;;;13.14;100.00;97668.03;1691096;83;21054;-74
2022/09/18 07:33:15;;;;;;;8.80;6.17;;;;;;;13.15;100.00;97650.73;1682119;85;20965;-73
2022/09/18 07:35:46;;;;;;;6.53;5.95;;;;;;;13.16;100.00;97651.53;1682275;84;21096;-76
2022/09/18 07:38:14;;;;;;;5.72;5.22;;;;;;;13.14;100.00;97642.97;1682125;85;21058;-72
2022/09/18 07:40:44;;;;;;;7.20;6.47;;;;;;;13.16;100.00;97627.23;1681164;83;21109;-73
2022/09/18 07:43:12;;;;;;;6.03;5.45;;;;;;;13.17;100.00;97623.43;1729021;81;21598;-73
2022/09/18 07:45:45;;;;;;;6.72;5.95;;;;;;;13.23;100.00;97624.32;1705261;83;21087;-75
2022/09/18 07:48:17;;;;;;;7.17;6.53;;;;;;;13.25;100.00;97625.33;1723075;83;21110;-73
2022/09/18 07:50:46;;;;;;;8.80;7.92;;;;;;;13.24;100.00;97613.73;1690063;84;21574;-73
2022/09/18 07:53:16;;;;;;;7.75;6.75;;;;;;;13.31;100.00;97612.72;1704940;84;21622;-74
2022/09/18 07:55:46;;;;;;;6.12;5.08;;;;;;;13.33;100.00;97605.08;1684445;84;21041;-72
2022/09/18 07:58:13;;;;;;;5.95;5.45;;;;;;;13.34;100.00;97601.27;1688588;83;20994;-72
2022/09/18 08:01:04;;;;;;;5.45;4.95;;;;;;;13.35;100.00;97598.81;1711683;83;21101;-74
2022/09/18 08:03:35;;;;;;;6.60;6.08;;;;;;;13.43;100.00;97589.11;1688609;83;21104;-74
2022/09/18 08:06:05;;;;;;;4.45;4.10;;;;;;;13.51;100.00;97596.42;1700668;82;21142;-72
2022/09/18 08:08:35;;;;;;;5.37;4.87;;;;;;;13.60;100.00;97593.70;1723473;83;21059;-74
2022/09/18 08:11:23;;;;;;;5.42;4.50;;;;;;;13.61;100.00;97583.15;1690762;84;21023;-74
2022/09/18 08:13:55;;;;;;;5.42;4.92;;;;;;;13.64;100.00;97579.24;1698345;84;21571;-72
2022/09/18 08:16:42;;;;;;;6.60;4.85;;;;;;;13.64;100.00;97587.34;1711042;82;21108;-73
2022/09/18 08:19:14;;;;;;;5.80;5.22;;;;;;;13.70;100.00;97592.82;1711976;81;21252;-72
2022/09/18 08:21:42;;;;;;;6.08;5.58;;;;;;;13.80;100.00;97601.94;1705393;82;21677;-72
2022/09/18 08:24:12;;;;;;;5.75;5.17;;;;;;;13.85;100.00;97600.42;1719996;83;22200;-71
2022/09/18 08:26:40;;;;;;;5.50;5.00;;;;;;;13.93;100.00;97604.20;1729426;81;21037;-69
2022/09/18 08:29:07;;;;;;;5.65;5.00;;;;;;;13.95;100.00;97602.78;1729694;83;22131;-72
2022/09/18 08:31:36;;;;;;;6.72;5.42;;;;;;;13.96;100.00;97595.44;1725188;83;21158;-71
2022/09/18 08:34:05;;;;;;;7.35;5.35;;;;;;;13.97;100.00;97588.92;1711541;82;21042;-71
2022/09/18 08:36:32;;;;;;;13.10;5.17;;;;;;;14.00;100.00;97587.50;1711729;83;21066;-71
2022/09/18 08:39:00;;;;;;;8.15;7.35;;;;;;;13.96;100.00;97583.28;1702162;83;22048;-71
2022/09/18 08:42:26;;;;;;;6.87;5.83;;;;;;;13.92;100.00;97580.98;1701495;83;21148;-70
2022/09/18 08:45:02;;;;;;;6.45;5.85;;;;;;;13.93;100.00;97583.94;1717053;83;21141;-70
2022/09/18 08:47:40;;;;;;;6.50;5.95;;;;;;;13.99;100.00;97590.76;1710648;83;21085;-74
2022/09/18 08:50:17;;;;;;;6.60;6.00;;;;;;;13.96;100.00;97580.02;1713472;82;21111;-71
2022/09/18 08:52:48;;;;;;;5.72;5.17;;;;;;;14.02;100.00;97575.79;1709897;82;21553;-71
2022/09/18 08:55:28;;;;;;;6.37;4.58;;;;;;;14.07;100.00;97563.45;1705552;82;21167;-71
2022/09/18 08:58:29;;;;;;;5.62;5.12;;;;;;;14.08;100.00;97567.75;1709677;82;21346;-70
2022/09/18 09:01:00;;;;;;;5.30;4.80;;;;;;;14.08;100.00;97566.39;1706445;83;21761;-76
2022/09/18 09:04:15;;;;;;;5.60;5.03;;;;;;;14.07;100.00;97566.16;1681526;85;21597;-74
2022/09/18 09:07:09;;;;;;;4.17;3.87;;;;;;;14.10;100.00;97562.82;1681243;85;20924;-71
2022/09/18 09:10:14;;;;;;;9.95;6.90;;;;;;;14.14;100.00;97559.14;1691384;83;21086;-71
2022/09/18 09:12:52;;;;;;;6.37;5.78;;;;;;;14.16;100.00;97551.48;1705027;82;22338;-69
2022/09/18 09:15:40;;;;;;;5.58;5.08;;;;;;;14.19;100.00;97552.20;1712286;83;20986;-73
2022/09/18 09:18:24;;;;;;;5.17;4.65;;;;;;;14.20;100.00;97542.95;1715606;83;21074;-73
2022/09/18 09:20:57;;;;;;;4.42;4.03;;;;;;;14.23;100.00;97532.86;1721021;83;21109;-78
2022/09/18 09:24:05;;;;;;;4.92;4.53;;;;;;;14.27;100.00;97527.59;1711333;83;21600;-72
2022/09/18 09:26:36;;;;;;;5.83;3.62;;;;;;;14.31;100.00;97529.86;1706581;83;21111;-71
2022/09/18 09:29:16;;;;;;;3.77;3.47;;;;;;;14.39;100.00;97529.84;1710233;82;21031;-72
2022/09/18 09:32:22;;;;;;;4.20;3.87;;;;;;;14.47;100.00;97531.48;1689103;83;21064;-72
2022/09/18 09:35:26;;;;;;;4.78;3.83;;;;;;;14.50;100.00;97518.64;1711197;83;21125;-71
2022/09/18 09:38:05;;;;;;;4.37;4.08;;;;;;;14.54;100.00;97527.12;1699979;83;22244;-72
2022/09/18 09:40:47;;;;;;;4.78;4.30;;;;;;;14.58;100.00;97525.93;1688457;82;21860;-71
2022/09/18 09:43:27;;;;;;;4.53;4.05;;;;;;;14.59;100.00;97514.77;1729611;83;21024;-72
2022/09/18 09:45:57;;;;;;;5.15;4.75;;;;;;;14.62;100.00;97523.59;1725094;83;21013;-71
2022/09/18 09:48:31;;;;;;;4.05;3.75;;;;;;;14.65;100.00;97523.48;1712010;83;21499;-73
2022/09/18 09:51:13;;;;;;;3.85;3.55;;;;;;;14.68;100.00;97514.14;1679085;85;21149;-69
2022/09/18 09:53:40;;;;;;;3.90;3.50;;;;;;;14.74;100.00;97525.56;1712334;81;21951;-71
2022/09/18 09:56:30;;;;;;;3.95;3.42;;;;;;;14.78;100.00;97530.54;1691740;83;21832;-73
2022/09/18 09:59:15;;;;;;;3.92;3.60;;;;;;;14.80;100.00;97523.70;1711711;83;21042;-71
2022/09/18 10:02:21;;;;;;;3.65;3.35;;;;;;;14.83;100.00;97531.70;1729237;82;21054;-72
2022/09/18 10:05:01;;;;;;;;;;;;;;;14.88;100.00;97523.94;1705757;84;21092;-71
2022/09/18 10:07:59;;;;;;;4.28;3.92;;;;;;;14.90;100.00;97536.59;1680158;84;21185;-71
2022/09/18 10:10:58;;;;;;;4.70;3.10;;;;;;;14.90;100.00;97539.30;1704594;82;21092;-69
2022/09/18 10:13:38;;;;;;;4.83;4.42;;;;;;;14.89;100.00;97529.03;1704171;84;21085;-70
2022/09/18 10:16:25;;;;;;;4.70;3.70;;;;;;;14.87;100.00;97533.20;1699973;83;21078;-71
2022/09/18 10:18:53;;;;;;;4.33;3.55;;;;;;;14.89;100.00;97533.09;1701058;83;21106;-73
2022/09/18 10:21:25;;;;;;;4.50;4.05;;;;;;;14.94;100.00;97533.45;1687509;83;21073;-70
2022/09/18 10:24:22;;;;;;;5.20;4.70;;;;;;;14.97;100.00;97531.42;1697899;83;21058;-71
2022/09/18 10:27:11;;;;;;;6.40;5.80;;;;;;;15.00;100.00;97524.81;1687375;83;21088;-70
2022/09/18 10:29:39;;;;;;;7.87;6.67;;;;;;;15.01;100.00;97514.19;1712113;83;21038;-67
2022/09/18 10:32:10;;;;;;;11.60;8.65;;;;;;;15.02;100.00;97512.28;1701166;83;21109;-74
2022/09/18 10:34:51;;;;;;;12.00;10.78;;;;;;;15.05;100.00;97515.14;1681907;85;21686;-69
2022/09/18 10:37:31;;;;;;;14.45;12.13;;;;;;;15.10;100.00;97512.23;1691542;83;21061;-68
2022/09/18 10:40:03;;;;;;;16.12;12.90;;;;;;;15.17;100.00;97512.47;1705766;83;21567;-68
2022/09/18 10:42:35;;;;;;;14.60;11.45;;;;;;;15.22;100.00;97510.91;1692334;83;21078;-70
2022/09/18 10:45:21;;;;;;;15.60;13.80;;;;;;;15.27;100.00;97515.33;1675097;83;21125;-70
2022/09/18 10:47:49;;;;;;;20.62;16.17;;;;;;;15.22;100.00;97519.59;1684169;84;21139;-71
2022/09/18 10:50:19;;;;;;;18.80;16.85;;;;;;;15.19;100.00;97522.97;1686976;83;21327;-70
2022/09/18 10:52:52;;;;;;;17.20;15.43;;;;;;;15.18;100.00;97519.47;1681535;83;20976;-70
2022/09/18 10:55:24;;;;;;;;;;;;;;;15.14;100.00;97514.50;1685874;83;21783;-71
2022/09/18 10:58:04;;;;;;;18.20;16.27;;;;;;;15.12;100.00;97512.67;1683647;85;20159;-67
2022/09/18 11:00:35;;;;;;;20.20;17.95;;;;;;;15.04;100.00;97513.55;1698609;83;21132;-70
2022/09/18 11:03:39;;;;;;;19.95;16.97;;;;;;;14.95;100.00;97509.33;1689080;83;22500;-68
2022/09/18 11:06:22;;;;;;;20.27;18.17;;;;;;;14.93;100.00;97504.80;1682985;85;21068;-68
2022/09/18 11:08:53;;;;;;;19.45;17.40;;;;;;;14.89;100.00;97506.03;1682886;85;21068;-66
2022/09/18 11:11:30;;;;;;;22.02;19.77;;;;;;;14.92;100.00;97495.88;1685015;83;21038;-69
2022/09/18 11:14:17;;;;;;;18.42;16.50;;;;;;;14.96;100.00;97493.33;1663745;85;21371;-70
2022/09/18 11:16:51;;;;;;;20.10;17.87;;;;;;;15.10;100.00;97499.25;1665137;83;20993;-68
2022/09/18 11:19:32;;;;;;;22.15;19.82;;;;;;;15.14;100.00;97497.45;1682949;83;20995;-68
2022/09/18 11:22:03;;;;;;;23.60;19.60;;;;;;;15.10;100.00;97486.51;1716911;81;21041;-70
2022/09/18 11:24:36;;;;;;;20.72;18.48;;;;;;;15.07;100.00;97485.80;1702311;83;21137;-69
2022/09/18 11:27:20;;;;;;;21.20;17.82;;;;;;;15.04;100.00;97473.50;1703472;82;21736;-69
2022/09/18 11:29:47;;;;;;;22.85;19.62;;;;;;;15.04;100.00;97466.73;1702708;83;21544;-70
2022/09/18 11:32:24;;;;;;;23.70;21.02;;;;;;;15.09;100.00;97448.94;1723361;83;21476;-68
2022/09/18 11:34:56;;;;;;;25.90;21.17;;;;;;;15.11;100.00;97453.44;1693055;84;21113;-72
2022/09/18 11:37:36;;;;;;;21.45;19.15;;;;;;;15.20;100.00;97451.45;1710883;83;21557;-69
2022/09/18 11:40:07;;;;;;;27.58;22.65;;;;;;;15.27;100.00;97446.27;1682127;85;21263;-68
2022/09/18 11:42:44;;;;;;;;;;;;;;;15.26;100.00;97444.68;1698034;83;20985;-69
2022/09/18 11:45:41;;;;;;;23.90;19.07;;;;;;;15.27;100.00;97436.79;1702573;82;20152;-69
2022/09/18 11:48:31;;;;;;;27.02;21.10;;;;;;;15.29;100.00;97438.61;1723284;82;21054;-70
2022/09/18 11:51:11;;;;;;;21.90;19.75;;;;;;;15.26;100.00;97440.63;1721658;82;22167;-70
2022/09/18 11:53:41;;;;;;;22.90;19.82;;;;;;;15.28;100.00;97437.02;1680071;83;21034;-70
2022/09/18 11:56:13;;;;;;;22.20;19.87;;;;;;;15.30;100.00;97440.77;1722736;83;21038;-67